Lindenau, Texas
Current Conditions -  °F | °C
As of 12:51 PM on Friday 31 Oct 2014 (Local Time) from KVCT Reporting Station
Clear Clear  
Wind Chill: 83°   Ceiling: Unl
Heat Index: 83°   Visibility: 10mi
Dew Point: 41°   Wind: 15mph
Humidity: 23%   Direction: 30°NNE
Pressure: 30.21"   Gusts: 22mph
Location:  29.0941°N, 97.191°W
Report Text: KVCT 311751Z 03013G19KT 10SM CLR 28/05 A3021 RMK AO2 SLP228 T02830050 10283 20183 58001
Loading
Personal Weather Stations






























Interactive Weather Map
Tropical Storm Tracking
New forecast layout! Learn more

10-Day Weather Forecast

Advertisements
Track Severe Weather on mobile